createdAt,value
2019-05-20T00:05:00.578Z,15.50
2019-05-20T00:10:04.651Z,14.78
2019-05-20T00:15:08.144Z,8.95
2019-05-20T00:20:11.139Z,15.63
2019-05-20T00:25:14.098Z,9.85
2019-05-20T00:30:17.451Z,7.55
2019-05-20T00:35:20.467Z,7.65
2019-05-20T00:40:23.428Z,9.98
2019-05-20T00:45:26.425Z,8.90
2019-05-20T00:50:29.459Z,6.78
2019-05-20T00:55:33.545Z,9.25
2019-05-20T01:00:36.825Z,9.65
2019-05-20T01:05:39.923Z,8.20
2019-05-20T01:10:42.921Z,9.43
2019-05-20T01:15:46.070Z,8.43
2019-05-20T01:20:49.124Z,10.80
2019-05-20T01:25:52.087Z,7.70
2019-05-20T01:30:55.093Z,9.93
2019-05-20T01:35:58.090Z,9.30
2019-05-20T01:41:01.056Z,8.15
2019-05-20T01:46:04.328Z,12.90
2019-05-20T01:51:07.799Z,8.70
2019-05-20T01:56:10.954Z,13.03
2019-05-20T02:01:14.253Z,8.90
2019-05-20T02:06:17.248Z,12.33
2019-05-20T02:11:20.196Z,11.53
2019-05-20T02:16:23.774Z,11.93
2019-05-20T02:21:26.950Z,11.15
2019-05-20T02:26:30.519Z,8.65
2019-05-20T02:31:33.729Z,13.77
2019-05-20T02:36:36.662Z,11.78
2019-05-20T02:41:39.622Z,11.65
2019-05-20T02:46:42.703Z,9.50
2019-05-20T02:51:45.693Z,9.53
2019-05-20T02:56:48.958Z,10.32
2019-05-20T03:01:52.065Z,10.63
2019-05-20T03:06:55.227Z,10.68
2019-05-20T03:11:58.302Z,9.78
2019-05-20T03:17:01.344Z,9.25
2019-05-20T03:22:04.329Z,9.88
2019-05-20T03:27:07.302Z,11.60
2019-05-20T03:32:10.347Z,8.08
2019-05-20T03:37:13.368Z,10.98
2019-05-20T03:42:16.344Z,11.18
2019-05-20T03:47:19.336Z,13.13
2019-05-20T03:52:22.302Z,12.90
2019-05-20T03:57:25.257Z,13.80
2019-05-20T04:02:28.263Z,14.90
2019-05-20T04:07:31.477Z,14.90
2019-05-20T04:12:34.483Z,15.08
2019-05-20T04:17:37.542Z,19.07
2019-05-20T04:22:40.624Z,15.32
2019-05-20T04:27:43.653Z,15.83
2019-05-20T04:32:46.650Z,11.93
2019-05-20T04:37:49.616Z,16.12
2019-05-20T04:42:52.589Z,23.97
2019-05-20T04:47:55.583Z,22.52
2019-05-20T04:52:58.556Z,16.32
2019-05-20T04:58:01.559Z,15.40
2019-05-20T05:03:04.575Z,14.00
2019-05-20T05:08:07.881Z,14.53
2019-05-20T05:13:11.450Z,16.00
2019-05-20T05:18:14.550Z,17.87
2019-05-20T05:23:17.930Z,15.60
2019-05-20T05:28:21.101Z,19.57
2019-05-20T05:33:24.107Z,14.58
2019-05-20T05:38:27.130Z,16.32
2019-05-20T05:43:30.203Z,13.27
2019-05-20T05:48:33.142Z,14.05
2019-05-20T05:53:36.112Z,16.77
2019-05-20T05:58:39.303Z,16.80
2019-05-20T06:03:42.443Z,18.60
2019-05-20T06:08:45.996Z,16.57
2019-05-20T06:13:49.033Z,12.78
2019-05-20T06:18:52.048Z,17.52
2019-05-20T06:23:55.277Z,13.53
2019-05-20T06:28:58.255Z,10.70
2019-05-20T06:34:01.453Z,10.05
2019-05-20T06:39:13.257Z,6.55
2019-05-20T06:44:16.301Z,7.58
2019-05-20T06:49:19.361Z,9.83
2019-05-20T06:54:22.475Z,5.67
2019-05-20T06:59:25.444Z,6.03
2019-05-20T07:04:28.634Z,3.12
2019-05-20T07:09:31.860Z,4.20
2019-05-20T07:14:34.989Z,4.53
2019-05-20T07:19:38.370Z,9.88
2019-05-20T07:24:41.460Z,5.55
2019-05-20T07:29:44.530Z,2.98
2019-05-20T07:34:47.668Z,5.65
2019-05-20T07:39:50.635Z,7.70
2019-05-20T07:44:53.600Z,1.05
2019-05-20T07:49:57.232Z,5.12
2019-05-20T07:55:01.431Z,3.02
2019-05-20T08:00:05.405Z,4.08
2019-05-20T08:05:08.917Z,1.70
2019-05-20T08:10:12.588Z,2.92
2019-05-20T08:15:15.890Z,6.55
2019-05-20T08:20:18.905Z,1.77
2019-05-20T08:25:22.008Z,1.17
2019-05-20T08:30:34.400Z,2.77
2019-05-20T08:35:37.378Z,1.70
2019-05-20T08:40:41.829Z,2.67
2019-05-20T08:45:44.928Z,3.62
2019-05-20T08:50:48.145Z,1.72
2019-05-20T08:55:51.238Z,2.58
2019-05-20T09:00:54.299Z,3.60
2019-05-20T09:05:57.362Z,1.82
2019-05-20T09:11:00.378Z,1.50
2019-05-20T09:16:03.633Z,5.35
2019-05-20T09:21:07.526Z,4.97
2019-05-20T09:26:10.551Z,7.43
2019-05-20T09:31:13.788Z,7.92
2019-05-20T09:36:16.898Z,7.92
2019-05-20T09:41:19.897Z,3.92
2019-05-20T09:46:22.856Z,9.10
2019-05-20T09:51:25.991Z,4.00
2019-05-20T09:56:29.177Z,2.90
2019-05-20T10:01:32.235Z,1.27
2019-05-20T10:06:35.393Z,2.07
2019-05-20T10:11:38.379Z,1.30
2019-05-20T10:16:41.376Z,4.87
2019-05-20T10:21:44.534Z,2.58
2019-05-20T10:26:47.510Z,2.95
2019-05-20T10:31:50.695Z,2.22
2019-05-20T10:36:53.691Z,3.92
2019-05-20T10:41:56.763Z,1.10
2019-05-20T10:46:59.782Z,4.15
2019-05-20T10:52:02.769Z,3.30
2019-05-20T10:57:05.775Z,7.20
2019-05-20T11:02:08.716Z,4.12
2019-05-20T11:07:11.705Z,2.55
2019-05-20T11:12:14.753Z,3.27
2019-05-20T11:17:17.714Z,4.12
2019-05-20T11:22:20.887Z,1.62
2019-05-20T11:27:23.956Z,2.75
2019-05-20T11:32:26.909Z,1.50
2019-05-20T11:37:29.981Z,1.67
2019-05-20T11:42:33.087Z,3.92
2019-05-20T11:47:36.081Z,2.08
2019-05-20T11:52:39.208Z,3.95
2019-05-20T11:57:42.401Z,3.55
2019-05-20T12:02:45.709Z,1.75
2019-05-20T12:07:48.823Z,3.00
2019-05-20T12:12:52.012Z,5.37
2019-05-20T12:17:55.128Z,3.47
2019-05-20T12:22:58.320Z,2.10
2019-05-20T12:28:01.318Z,2.70
2019-05-20T12:33:18.091Z,6.35
2019-05-20T12:38:09.188Z,1.85
2019-05-20T12:43:12.310Z,1.60
2019-05-20T12:48:15.530Z,5.30
2019-05-20T12:53:18.521Z,3.63
2019-05-20T12:58:21.574Z,2.35
2019-05-20T13:03:24.603Z,5.00
2019-05-20T13:08:27.691Z,4.33
2019-05-20T13:13:30.823Z,2.85
2019-05-20T13:18:33.936Z,4.53
2019-05-20T13:23:36.948Z,3.67
2019-05-20T13:28:39.994Z,1.77
2019-05-20T13:33:43.090Z,4.30
2019-05-20T13:38:46.342Z,1.60
2019-05-20T13:43:49.289Z,1.90
2019-05-20T13:48:52.307Z,2.80
2019-05-20T13:53:55.349Z,3.67
2019-05-20T13:58:58.296Z,4.45
2019-05-20T14:04:01.212Z,3.95
2019-05-20T14:09:07.512Z,2.67
2019-05-20T14:19:12.327Z,4.90
2019-05-20T14:24:15.358Z,3.05
2019-05-20T14:29:18.473Z,2.87
2019-05-20T14:34:23.332Z,3.65
2019-05-20T14:39:26.679Z,3.33
2019-05-20T14:44:29.684Z,2.20
2019-05-20T14:49:32.693Z,2.05
2019-05-20T14:54:35.649Z,1.23
2019-05-20T14:59:38.629Z,3.50
2019-05-20T15:04:41.694Z,2.95
2019-05-20T15:09:44.957Z,2.02
2019-05-20T15:14:47.918Z,3.45
2019-05-20T15:19:51.166Z,2.35
2019-05-20T15:24:54.352Z,5.00
2019-05-20T15:29:57.311Z,4.20
2019-05-20T15:35:00.287Z,5.00
2019-05-20T15:40:03.823Z,2.87
2019-05-20T15:45:09.260Z,5.50
2019-05-20T15:50:12.814Z,1.93
2019-05-20T15:55:15.866Z,5.22
2019-05-20T16:00:19.552Z,5.87
2019-05-20T16:05:22.546Z,3.20
2019-05-20T16:10:25.558Z,3.87
2019-05-20T16:15:28.803Z,5.92
2019-05-20T16:20:31.875Z,4.78
2019-05-20T16:25:35.002Z,4.22
2019-05-20T16:30:38.095Z,4.67
2019-05-20T16:35:41.138Z,9.85
2019-05-20T16:40:44.430Z,13.20
2019-05-20T16:45:47.541Z,9.35
2019-05-20T16:50:50.568Z,8.08
2019-05-20T16:55:53.590Z,3.60
2019-05-20T17:00:56.632Z,10.85
2019-05-20T17:05:59.647Z,11.78
2019-05-20T17:11:02.640Z,8.40
2019-05-20T17:16:05.668Z,9.13
2019-05-20T17:21:08.638Z,6.35
2019-05-20T17:26:11.675Z,6.35
2019-05-20T17:31:14.768Z,6.10
2019-05-20T17:36:17.777Z,6.00
2019-05-20T17:41:20.803Z,8.03
2019-05-20T17:46:24.194Z,6.05
2019-05-20T17:51:27.377Z,8.53
2019-05-20T17:56:30.851Z,4.80
2019-05-20T18:01:34.144Z,8.33
2019-05-20T18:06:37.325Z,4.10
2019-05-20T18:11:40.334Z,8.23
2019-05-20T18:16:43.388Z,6.08
2019-05-20T18:21:46.423Z,5.35
2019-05-20T18:26:49.681Z,3.58
2019-05-20T18:31:52.764Z,2.52
2019-05-20T18:36:55.872Z,2.67
2019-05-20T18:41:58.892Z,3.80
2019-05-20T18:47:02.083Z,3.98
2019-05-20T18:52:05.305Z,2.72
2019-05-20T18:57:08.379Z,3.42
2019-05-20T19:02:11.766Z,3.65
2019-05-20T19:07:14.908Z,2.87
2019-05-20T19:12:18.175Z,3.83
2019-05-20T19:17:24.402Z,1.70
2019-05-20T19:22:27.559Z,5.00
2019-05-20T19:27:30.628Z,5.17
2019-05-20T19:32:33.671Z,5.78
2019-05-20T19:37:36.676Z,4.85
2019-05-20T19:42:39.802Z,6.85
2019-05-20T19:47:42.868Z,4.65
2019-05-20T19:52:45.977Z,6.57
2019-05-20T19:57:49.031Z,6.53
2019-05-20T20:02:52.051Z,4.22
2019-05-20T20:07:55.475Z,9.33
2019-05-20T20:12:58.531Z,2.98
2019-05-20T20:18:01.567Z,5.03
2019-05-20T20:23:04.568Z,6.85
2019-05-20T20:28:07.563Z,4.35
2019-05-20T20:33:10.654Z,8.43
2019-05-20T20:38:13.779Z,6.22
2019-05-20T20:43:16.956Z,5.40
2019-05-20T20:48:19.984Z,5.15
2019-05-20T20:53:22.982Z,5.83
2019-05-20T20:58:25.976Z,8.55
2019-05-20T21:03:29.162Z,5.60
2019-05-20T21:08:32.259Z,4.55
2019-05-20T21:13:35.288Z,7.83
2019-05-20T21:18:38.294Z,5.67
2019-05-20T21:23:41.415Z,7.25
2019-05-20T21:28:44.374Z,7.65
2019-05-20T21:33:47.357Z,10.43
2019-05-20T21:38:50.333Z,5.70
2019-05-20T21:43:53.409Z,7.97
2019-05-20T21:48:56.619Z,7.78
2019-05-20T21:53:59.565Z,7.25
2019-05-20T21:59:02.532Z,5.87
2019-05-20T22:04:05.609Z,7.20
2019-05-20T22:09:08.591Z,7.75
2019-05-20T22:14:11.655Z,9.75
2019-05-20T22:19:14.699Z,10.53
2019-05-20T22:24:17.997Z,15.63
2019-05-20T22:29:20.957Z,9.40
2019-05-20T22:34:24.005Z,8.08
2019-05-20T22:39:26.993Z,9.15
2019-05-20T22:44:29.937Z,9.00
2019-05-20T22:49:34.046Z,12.75
2019-05-20T22:54:36.997Z,7.12
2019-05-20T22:59:39.990Z,10.18
2019-05-20T23:04:42.971Z,7.45
2019-05-20T23:09:46.073Z,12.80
2019-05-20T23:14:49.058Z,10.60
2019-05-20T23:19:52.068Z,10.53
2019-05-20T23:24:54.999Z,6.80
2019-05-20T23:29:58.016Z,7.45
2019-05-20T23:35:01.017Z,9.23
2019-05-20T23:40:04.835Z,8.18
2019-05-20T23:45:09.721Z,8.98
2019-05-20T23:50:13.011Z,16.32
2019-05-20T23:55:16.173Z,9.65
